Etretat — FIDP — position and weather

sailwx.info

Track history (hours):
 
Tides and Currents Weather Stations Pressure Air Temp Water Temp Dewpoint Dewpoint Depression Visibility Wind Speed Wind Dir Waves Ship Positions

Etretat

Last reported at 2017-Jun-29 07:30 UTC. Time now 2017-Jun-29 07:36 UTC.
Position N 49°29' E 000°07'.

Length 187 m; draft 6 m.

Type: Ship. MMSI: 228022900.

Date/timePositionNaut miles runAvg speedWind from/ knotsBaromVisibWave heightAir tempDewpointWater temp
2017-Jun-29 07:30N 49°29' E 000°07'0 0.0
2017-Jun-29 07:00N 49°29' E 000°07'0 0.0
2017-Jun-29 06:30N 49°29' E 000°07'3 6.0
2017-Jun-29 06:01N 49°30' E 000°02'816.7
2017-Jun-29 05:30N 49°37' W 000°04'3 5.3
2017-Jun-29 05:00N 49°37' W 000°08'4 8.7
2017-Jun-29 04:30N 49°40' W 000°02'2 3.1
2017-Jun-29 04:00N 49°41' W 000°04'714.5
2017-Jun-29 03:30N 49°46' W 000°12'814.9
2017-Jun-29 02:59N 49°53' W 000°17'4315.3
2017-Jun-29 00:10N 50°31' W 000°48'316.0
2017-Jun-29 00:00N 50°34' W 000°50'815.6
2017-Jun-28 23:30N 50°40' W 000°56'714.4
2017-Jun-28 23:00N 50°45' W 001°05'4 8.0
2017-Jun-28 22:30N 50°49' W 001°06'0 0.0
2017-Jun-28 22:00N 50°49' W 001°06'0 0.0
2017-Jun-28 21:30N 50°49' W 001°06'0 0.0
2017-Jun-28 21:00N 50°49' W 001°06'0 0.0
2017-Jun-28 20:30N 50°49' W 001°06'1 2.0
2017-Jun-28 20:00N 50°48' W 001°07'713.4
2017-Jun-28 19:30N 50°43' W 000°60'919.0
2017-Jun-28 19:01N 50°35' W 000°52'1121.3
2017-Jun-28 18:29N 50°25' W 000°43'2921.7
2017-Jun-28 17:09N 49°59' W 000°23'322.0
2017-Jun-28 17:00N 49°56' W 000°21'1122.0
2017-Jun-28 16:30N 49°47' W 000°13'1121.8
2017-Jun-28 16:00N 49°37' W 000°04'1019.2
2017-Jun-28 15:30N 49°29' E 000°04'2 3.3
2017-Jun-28 15:01N 49°29' E 000°07'0 0.0
2017-Jun-28 14:30N 49°29' E 000°07'0 0.0
2017-Jun-28 13:30N 49°29' E 000°07'0 0.0
2017-Jun-28 13:01N 49°29' E 000°07'0 0.0
2017-Jun-28 12:31N 49°29' E 000°07'0 0.0
2017-Jun-28 12:00N 49°29' E 000°07'0 0.0
2017-Jun-28 11:31N 49°29' E 000°07'0 0.0
2017-Jun-28 11:00N 49°29' E 000°07'0 0.0
2017-Jun-28 10:30N 49°29' E 000°07'0 0.0
2017-Jun-28 10:00N 49°29' E 000°07'0 0.0
2017-Jun-28 09:30N 49°29' E 000°07'0 0.0
2017-Jun-28 09:01N 49°29' E 000°07'0 0.0
2017-Jun-28 08:31N 49°29' E 000°07'0 0.0
2017-Jun-28 08:00N 49°29' E 000°07'0 0.0
2017-Jun-28 07:31N 49°29' E 000°07'0 0.0
2017-Jun-28 07:00N 49°29' E 000°07'0 0.0
2017-Jun-28 06:30N 49°29' E 000°07'3 5.7
2017-Jun-28 06:00N 49°30' E 000°02'816.5
2017-Jun-28 05:30N 49°37' W 000°03'3 6.4
2017-Jun-28 05:00N 49°40' W 000°05'0 0.3
2017-Jun-28 04:30N 49°40' W 000°05'612.8
2017-Jun-28 04:00N 49°45' W 000°12'3014.8
2017-Jun-28 02:01N 50°09' W 000°38'017.2
2017-Jun-28 01:59N 50°09' W 000°39'714.1
2017-Jun-28 01:30N 50°16' W 000°41'1714.5
2017-Jun-28 00:21N 50°32' W 000°49'515.0
2017-Jun-28 00:00N 50°37' W 000°52'714.2
2017-Jun-27 23:31N 50°42' W 000°59'612.8
2017-Jun-27 23:00N 50°47' W 001°06'2 3.7
2017-Jun-27 22:31N 50°49' W 001°06'0 0.0
2017-Jun-27 22:00N 50°49' W 001°06'0 0.0
2017-Jun-27 21:30N 50°49' W 001°06'0 0.0
2017-Jun-27 21:00N 50°49' W 001°06'0 0.0
2017-Jun-27 20:30N 50°49' W 001°06'1 2.3
2017-Jun-27 20:00N 50°48' W 001°07'714.1
2017-Jun-27 19:31N 50°43' W 000°59'918.0
2017-Jun-27 19:01N 50°35' W 000°53'1019.5
2017-Jun-27 18:31N 50°26' W 000°46'2520.7
2017-Jun-27 17:19N 50°04' W 000°27'721.2
2017-Jun-27 17:00N 49°58' W 000°22'1121.4
2017-Jun-27 16:31N 49°49' W 000°14'1121.0
2017-Jun-27 16:01N 49°40' W 000°07'1020.9
2017-Jun-27 15:31N 49°31' E 000°01'4 8.0
2017-Jun-27 15:01N 49°29' E 000°07'0 0.0
2017-Jun-27 14:00N 49°29' E 000°07'0 0.0
2017-Jun-27 13:31N 49°29' E 000°07'0 0.0
2017-Jun-27 13:01N 49°29' E 000°07'0 0.0
2017-Jun-27 12:31N 49°29' E 000°07'0 0.0
2017-Jun-27 12:01N 49°29' E 000°07'0 0.0
2017-Jun-27 11:31N 49°29' E 000°07'0 0.0
2017-Jun-27 11:01N 49°29' E 000°07'0 0.0
2017-Jun-27 10:31N 49°29' E 000°07'0 0.0
2017-Jun-27 10:00N 49°29' E 000°07'0 0.0
2017-Jun-27 09:31N 49°29' E 000°07'0 0.0
2017-Jun-27 09:01N 49°29' E 000°07'0 0.0
2017-Jun-27 08:30N 49°29' E 000°07'0 0.0
2017-Jun-27 08:01N 49°29' E 000°07'0 0.0
2017-Jun-27 07:30N 49°29' E 000°07'0 0.0
2017-Jun-27 07:01N 49°29' E 000°07'0 0.0
2017-Jun-27 06:31N 49°29' E 000°07'2 3.1
2017-Jun-27 06:01N 49°29' E 000°04'816.2
2017-Jun-27 05:31N 49°36' W 000°03'3 5.1
2017-Jun-27 05:00N 49°38' W 000°06'1 1.4
2017-Jun-27 04:30N 49°38' W 000°05'5 9.9
2017-Jun-27 04:00N 49°42' W 000°09'917.7
2017-Jun-27 03:30N 49°50' W 000°14'815.0
2017-Jun-27 03:00N 49°57' W 000°19'815.0
2017-Jun-27 02:30N 50°04' W 000°25'815.4
2017-Jun-27 02:01N 50°11' W 000°29'816.0
2017-Jun-27 01:30N 50°18' W 000°35'815.5
2017-Jun-27 01:01N 50°24' W 000°42'815.6
2017-Jun-27 00:30N 50°31' W 000°49'713.9
2017-Jun-27 00:00N 50°37' W 000°54'713.9
2017-Jun-26 23:31N 50°43' W 000°59'713.2
2017-Jun-26 23:00N 50°47' W 001°07'1 2.7
2017-Jun-26 22:30N 50°49' W 001°06'0 0.0
2017-Jun-26 22:01N 50°49' W 001°06'0 0.0
2017-Jun-26 21:30N 50°49' W 001°06'0 0.0
2017-Jun-26 21:00N 50°49' W 001°06'0 0.0
2017-Jun-26 20:31N 50°49' W 001°06'1 2.9
2017-Jun-26 20:00N 50°47' W 001°06'816.2
2017-Jun-26 19:30N 50°42' W 000°57'1019.3
2017-Jun-26 19:00N 50°34' W 000°49'1019.8
2017-Jun-26 18:30N 50°25' W 000°41'919.0
2017-Jun-26 18:01N 50°16' W 000°35'1019.2
2017-Jun-26 17:31N 50°07' W 000°30'1019.3
2017-Jun-26 17:00N 49°59' W 000°23'1019.5
2017-Jun-26 16:30N 49°50' W 000°15'1019.8
2017-Jun-26 16:01N 49°42' W 000°08'1019.5
2017-Jun-26 15:31N 49°33' W 000°01'612.6
2017-Jun-26 15:00N 49°29' E 000°07'0 0.0
2017-Jun-26 14:00N 49°29' E 000°07'0 0.0
2017-Jun-26 13:30N 49°29' E 000°07'0 0.0
2017-Jun-26 13:00N 49°29' E 000°07'0 0.0
2017-Jun-26 12:30N 49°29' E 000°07'0 0.0
2017-Jun-26 12:00N 49°29' E 000°07'0 0.0
2017-Jun-26 11:30N 49°29' E 000°07'0 0.0
2017-Jun-26 11:00N 49°29' E 000°07'0 0.0
2017-Jun-26 10:30N 49°29' E 000°07'0 0.0
2017-Jun-26 10:00N 49°29' E 000°07'0 0.0
2017-Jun-26 09:30N 49°29' E 000°07'0 0.0
2017-Jun-26 09:00N 49°29' E 000°07'0 0.0
2017-Jun-26 08:30N 49°29' E 000°07'0 0.0
2017-Jun-26 08:00N 49°29' E 000°07'0 0.0
2017-Jun-26 07:30N 49°29' E 000°07'0 0.0
2017-Jun-26 07:00N 49°29' E 000°07'1 1.1
2017-Jun-26 06:30N 49°29' E 000°06'714.9
2017-Jun-26 06:00N 49°34' W 000°03'4 7.6
2017-Jun-26 05:30N 49°37' W 000°07'1 1.2
2017-Jun-26 05:00N 49°37' W 000°06'1 1.3
2017-Jun-26 04:30N 49°38' W 000°06'2 4.7
2017-Jun-26 04:00N 49°40' W 000°07'918.0
2017-Jun-26 03:30N 49°48' W 000°13'816.2
2017-Jun-26 03:00N 49°55' W 000°19'713.2
2017-Jun-26 02:30N 50°01' W 000°23'713.2
2017-Jun-26 02:00N 50°07' W 000°28'713.4
2017-Jun-26 01:30N 50°13' W 000°32'713.7
2017-Jun-26 01:00N 50°19' W 000°38'714.1
2017-Jun-26 00:30N 50°25' W 000°43'714.4
2017-Jun-26 00:00N 50°32' W 000°49'714.3
2017-Jun-25 23:30N 50°38' W 000°54'713.4
2017-Jun-25 23:00N 50°43' W 001°01'612.7
2017-Jun-25 22:30N 50°48' W 001°07'1 1.9
2017-Jun-25 22:00N 50°49' W 001°06'0 0.0
2017-Jun-25 21:30N 50°49' W 001°06'0 0.0
2017-Jun-25 21:00N 50°49' W 001°06'0 0.0
2017-Jun-25 20:30N 50°49' W 001°06'2 4.2
2017-Jun-25 20:00N 50°47' W 001°06'714.0
2017-Jun-25 19:30N 50°42' W 000°58'918.9
2017-Jun-25 19:00N 50°33' W 000°52'1119.4
2017-Jun-25 18:27N 50°23' W 000°46'819.2
2017-Jun-25 18:00N 50°16' W 000°38'1019.0
2017-Jun-25 17:30N 50°08' W 000°29'918.9
2017-Jun-25 17:00N 49°60' W 000°23'918.7
2017-Jun-25 16:30N 49°51' W 000°17'1019.0
2017-Jun-25 16:00N 49°43' W 000°10'1020.1
2017-Jun-25 15:30N 49°34' W 000°02'815.8
2017-Jun-25 15:01N 49°29' E 000°07'0 0.0
2017-Jun-25 14:30N 49°29' E 000°07'0 0.0
2017-Jun-25 13:31N 49°29' E 000°07'0 0.0
2017-Jun-25 13:01N 49°29' E 000°07'0 0.0
2017-Jun-25 12:31N 49°29' E 000°07'0 0.0
2017-Jun-25 12:01N 49°29' E 000°07'0 0.0
2017-Jun-25 11:30N 49°29' E 000°07'0 0.0
2017-Jun-25 11:01N 49°29' E 000°07'0 0.0
2017-Jun-25 10:30N 49°29' E 000°07'0 0.0
2017-Jun-25 10:00N 49°29' E 000°07'0 0.0
2017-Jun-25 09:31N 49°29' E 000°07'0 0.0
2017-Jun-25 09:01N 49°29' E 000°07'0 0.0
2017-Jun-25 08:30N 49°29' E 000°07'0 0.0
2017-Jun-25 08:00N 49°29' E 000°07'0 0.0
2017-Jun-25 07:30N 49°29' E 000°07'0 0.0
2017-Jun-25 07:01N 49°29' E 000°07'0 0.0
2017-Jun-25 06:30N 49°29' E 000°07'3 5.4
2017-Jun-25 06:00N 49°30' E 000°03'714.7
2017-Jun-25 05:31N 49°36' W 000°03'714.1
2017-Jun-25 05:00N 49°42' W 000°09'713.8
2017-Jun-25 04:31N 49°48' W 000°14'713.8
2017-Jun-25 04:00N 49°53' W 000°21'612.3
2017-Jun-25 03:30N 49°58' W 000°26'611.4
2017-Jun-25 03:00N 50°03' W 000°31'510.2
2017-Jun-25 02:30N 50°08' W 000°35'610.1
2017-Jun-25 01:55N 50°12' W 000°40'5 9.3
2017-Jun-25 01:22N 50°17' W 000°43'1114.0
2017-Jun-25 00:35N 50°28' W 000°49'114.4
2017-Jun-25 00:30N 50°29' W 000°50'715.0
2017-Jun-25 00:00N 50°36' W 000°54'714.5
2017-Jun-24 23:31N 50°42' W 000°58'612.9
2017-Jun-24 23:00N 50°47' W 001°06'2 4.1
2017-Jun-24 22:30N 50°49' W 001°06'0 0.0
2017-Jun-24 22:00N 50°49' W 001°06'0 0.0
2017-Jun-24 21:30N 50°49' W 001°06'0 0.0
2017-Jun-24 21:00N 50°49' W 001°06'0 0.0
2017-Jun-24 20:31N 50°49' W 001°06'2 3.7
2017-Jun-24 20:00N 50°47' W 001°06'815.6
2017-Jun-24 19:30N 50°41' W 000°57'1019.1
2017-Jun-24 19:00N 50°33' W 000°49'2419.0
2017-Jun-24 17:46N 50°12' W 000°32'519.3
2017-Jun-24 17:30N 50°08' W 000°29'1019.3
2017-Jun-24 17:00N 49°59' W 000°23'1019.6
2017-Jun-24 16:30N 49°50' W 000°16'1020.4
2017-Jun-24 16:00N 49°41' W 000°09'1020.0
2017-Jun-24 15:30N 49°33' W 000°01'612.0
2017-Jun-24 15:00N 49°29' E 000°07'0 0.0
2017-Jun-24 14:01N 49°29' E 000°07'0 0.0
2017-Jun-24 13:31N 49°29' E 000°07'0 0.0
2017-Jun-24 13:00N 49°29' E 000°07'0 0.0
2017-Jun-24 12:30N 49°29' E 000°07'0 0.0
2017-Jun-24 12:00N 49°29' E 000°07'0 0.0
2017-Jun-24 11:30N 49°29' E 000°07'0 0.0
2017-Jun-24 11:00N 49°29' E 000°07'0 0.0
2017-Jun-24 10:31N 49°29' E 000°07'0 0.0
2017-Jun-24 10:00N 49°29' E 000°07'0 0.0
2017-Jun-24 09:31N 49°29' E 000°07'0 0.0
2017-Jun-24 09:00N 49°29' E 000°07'0 0.0
2017-Jun-24 08:30N 49°29' E 000°07'0 0.0
2017-Jun-24 08:00N 49°29' E 000°07'0 0.0
2017-Jun-24 07:30N 49°29' E 000°07'0 0.0
2017-Jun-24 07:00N 49°29' E 000°07'0 0.0
2017-Jun-24 06:31N 49°29' E 000°07'2 4.2
2017-Jun-24 06:00N 49°29' E 000°04'714.9
2017-Jun-24 05:30N 49°36' W 000°03'611.4
2017-Jun-24 05:01N 49°41' W 000°07'612.0
2017-Jun-24 04:31N 49°46' W 000°12'611.8
2017-Jun-24 04:01N 49°51' W 000°16'611.2
2017-Jun-24 03:30N 49°56' W 000°20'611.1
2017-Jun-24 03:00N 50°01' W 000°25'510.8
2017-Jun-24 02:31N 50°06' W 000°29'2912.7
2017-Jun-24 00:12N 50°32' W 000°49'313.0
2017-Jun-23 23:59N 50°34' W 000°51'612.7
2017-Jun-23 23:31N 50°39' W 000°56'713.0
2017-Jun-23 23:00N 50°44' W 001°03'510.4
2017-Jun-23 22:31N 50°49' W 001°06'0 0.5
2017-Jun-23 22:00N 50°49' W 001°06'0 0.0
2017-Jun-23 21:30N 50°49' W 001°06'0 0.0
2017-Jun-23 21:01N 50°49' W 001°06'0 0.0
2017-Jun-23 20:30N 50°49' W 001°06'0 0.0
2017-Jun-23 20:00N 50°49' W 001°06'0 0.0
2017-Jun-23 19:30N 50°49' W 001°06'0 0.0
2017-Jun-23 19:00N 50°49' W 001°06'0 0.0
2017-Jun-23 18:30N 50°49' W 001°06'0 0.0
2017-Jun-23 18:00N 50°49' W 001°06'0 0.0
2017-Jun-23 17:30N 50°49' W 001°06'0 0.0
2017-Jun-23 17:00N 50°49' W 001°06'0 0.0
2017-Jun-23 16:30N 50°49' W 001°06'0 0.0
2017-Jun-23 16:00N 50°49' W 001°06'0 0.0
2017-Jun-23 15:30N 50°49' W 001°06'0 0.0
2017-Jun-23 15:00N 50°49' W 001°06'0 0.0
2017-Jun-23 14:30N 50°49' W 001°06'0 0.0
2017-Jun-23 13:30N 50°49' W 001°06'0 0.0
2017-Jun-23 13:00N 50°49' W 001°06'0 0.0
2017-Jun-23 12:30N 50°49' W 001°06'0 0.0
2017-Jun-23 12:00N 50°49' W 001°06'0 0.0
2017-Jun-23 11:30N 50°49' W 001°06'0 0.0
2017-Jun-23 11:00N 50°49' W 001°06'0 0.0
2017-Jun-23 10:30N 50°49' W 001°06'0 0.0
2017-Jun-23 10:00N 50°49' W 001°06'0 0.0
2017-Jun-23 09:30N 50°49' W 001°06'0 0.0
2017-Jun-23 09:00N 50°49' W 001°06'0 0.0
2017-Jun-23 08:30N 50°49' W 001°06'0 0.0
2017-Jun-23 08:00N 50°49' W 001°06'0 0.0
2017-Jun-23 07:30N 50°49' W 001°06'0 0.0
2017-Jun-23 07:00N 50°49' W 001°06'2 3.6
2017-Jun-23 06:30N 50°47' W 001°06'815.8
2017-Jun-23 06:01N 50°41' W 000°57'612.7
2017-Jun-23 05:31N 50°36' W 000°53'5 9.7
2017-Jun-23 05:01N 50°31' W 000°49'5 9.5
2017-Jun-23 04:30N 50°27' W 000°46'510.0
2017-Jun-23 04:00N 50°23' W 000°42'6 9.7
2017-Jun-23 03:21N 50°17' W 000°37'3 9.7
2017-Jun-23 03:00N 50°14' W 000°34'612.1
2017-Jun-23 02:29N 50°09' W 000°29'511.3
2017-Jun-23 02:00N 50°04' W 000°25'611.4
2017-Jun-23 01:30N 49°59' W 000°21'611.7
2017-Jun-23 01:00N 49°54' W 000°17'611.5
2017-Jun-23 00:30N 49°49' W 000°13'611.7
2017-Jun-23 00:00N 49°44' W 000°08'4 8.4
2017-Jun-22 23:31N 49°41' W 000°04'1 2.8
2017-Jun-22 23:01N 49°39' W 000°04'1 1.3
2017-Jun-22 22:30N 49°40' W 000°04'1 1.3
2017-Jun-22 22:00N 49°40' W 000°05'1 1.5
2017-Jun-22 21:31N 49°40' W 000°06'2 3.8
2017-Jun-22 21:00N 49°39' W 000°04'815.4
2017-Jun-22 20:30N 49°32' E 000°01'5 9.5
2017-Jun-22 20:01N 49°29' E 000°07'0 0.0
2017-Jun-22 19:31N 49°29' E 000°07'0 0.0
2017-Jun-22 19:01N 49°29' E 000°07'0 0.0
2017-Jun-22 18:31N 49°29' E 000°07'0 0.0
2017-Jun-22 18:00N 49°29' E 000°07'0 0.0
2017-Jun-22 17:30N 49°29' E 000°07'0 0.0
2017-Jun-22 17:01N 49°29' E 000°07'0 0.0
2017-Jun-22 16:31N 49°29' E 000°07'0 0.0
2017-Jun-22 16:01N 49°29' E 000°07'0 0.0
2017-Jun-22 15:31N 49°29' E 000°07'0 0.0
2017-Jun-22 15:01N 49°29' E 000°07'0 0.0
2017-Jun-22 14:00N 49°29' E 000°07'0 0.0
2017-Jun-22 13:31N 49°29' E 000°07'0 0.0
2017-Jun-22 13:01N 49°29' E 000°07'0 0.0
2017-Jun-22 12:31N 49°29' E 000°07'0 0.0
2017-Jun-22 12:01N 49°29' E 000°07'0 0.0
2017-Jun-22 11:31N 49°29' E 000°07'0 0.0
2017-Jun-22 11:00N 49°29' E 000°07'0 0.0
2017-Jun-22 10:30N 49°29' E 000°07'0 0.0
2017-Jun-22 10:01N 49°29' E 000°07'0 0.0
2017-Jun-22 09:31N 49°29' E 000°07'0 0.0
2017-Jun-22 09:00N 49°29' E 000°07'0 0.0
2017-Jun-22 08:31N 49°29' E 000°07'0 0.0
2017-Jun-22 08:01N 49°29' E 000°07'0 0.0
2017-Jun-22 07:31N 49°29' E 000°07'0 0.0
2017-Jun-22 07:01N 49°29' E 000°07'0 0.3
2017-Jun-22 06:31N 49°29' E 000°07'2 4.8
2017-Jun-22 06:00N 49°30' E 000°03'612.6
2017-Jun-22 05:31N 49°35' W 000°03'5 9.9
2017-Jun-22 05:01N 49°39' W 000°06'5 9.5
2017-Jun-22 04:31N 49°43' W 000°09'5 9.3
2017-Jun-22 04:00N 49°47' W 000°13'5 9.8
2017-Jun-22 03:30N 49°52' W 000°16'510.0
2017-Jun-22 03:00N 49°56' W 000°20'612.3
2017-Jun-22 02:30N 50°02' W 000°24'815.0
2017-Jun-22 02:00N 50°09' W 000°28'714.6
2017-Jun-22 01:31N 50°15' W 000°33'714.1
2017-Jun-22 01:01N 50°21' W 000°39'714.7
2017-Jun-22 00:31N 50°27' W 000°46'714.9
2017-Jun-22 00:01N 50°34' W 000°51'714.7
2017-Jun-21 23:31N 50°40' W 000°57'713.8
2017-Jun-21 23:01N 50°45' W 001°05'4 8.0
2017-Jun-21 22:30N 50°49' W 001°06'0 0.0
2017-Jun-21 22:01N 50°49' W 001°06'0 0.0
2017-Jun-21 21:30N 50°49' W 001°06'0 0.0
2017-Jun-21 21:01N 50°49' W 001°06'0 0.0
2017-Jun-21 20:30N 50°49' W 001°06'1 2.5
2017-Jun-21 20:01N 50°48' W 001°07'816.8
2017-Jun-21 19:31N 50°41' W 000°59'1020.9
2017-Jun-21 19:00N 50°32' W 000°50'1120.4
2017-Jun-21 18:28N 50°24' W 000°39'920.5
2017-Jun-21 18:00N 50°16' W 000°31'1020.5
2017-Jun-21 17:30N 50°06' W 000°25'1020.7
2017-Jun-21 17:00N 49°57' W 000°18'1020.6
2017-Jun-21 16:30N 49°47' W 000°12'1020.8
2017-Jun-21 16:00N 49°38' W 000°04'1019.3
2017-Jun-21 15:31N 49°30' E 000°03'3 5.1
2017-Jun-21 15:01N 49°29' E 000°07'0 0.0
2017-Jun-21 14:30N 49°29' E 000°07'0 0.0
2017-Jun-21 13:31N 49°29' E 000°07'0 0.0
2017-Jun-21 13:00N 49°29' E 000°07'0 0.0
2017-Jun-21 12:30N 49°29' E 000°07'0 0.0
2017-Jun-21 12:00N 49°29' E 000°07'0 0.0
2017-Jun-21 11:30N 49°29' E 000°07'0 0.0
2017-Jun-21 11:00N 49°29' E 000°07'0 0.0
2017-Jun-21 10:30N 49°29' E 000°07'0 0.0
2017-Jun-21 10:01N 49°29' E 000°07'0 0.0
2017-Jun-21 09:31N 49°29' E 000°07'0 0.0
2017-Jun-21 09:00N 49°29' E 000°07'0 0.0
2017-Jun-21 08:30N 49°29' E 000°07'0 0.0
2017-Jun-21 08:00N 49°29' E 000°07'0 0.0
2017-Jun-21 07:31N 49°29' E 000°07'0 0.0
2017-Jun-21 07:00N 49°29' E 000°07'0 0.0
2017-Jun-21 06:30N 49°29' E 000°07'3 6.6
2017-Jun-21 06:01N 49°30' E 000°02'714.4
2017-Jun-21 05:31N 49°36' W 000°03'2 4.1
2017-Jun-21 05:00N 49°38' W 000°05'1 1.2
2017-Jun-21 04:30N 49°38' W 000°06'3 6.4
2017-Jun-21 04:00N 49°41' W 000°09'918.0
2017-Jun-21 03:30N 49°48' W 000°17'917.3
2017-Jun-21 03:00N 49°55' W 000°24'815.9
2017-Jun-21 02:30N 50°02' W 000°30'916.0
2017-Jun-21 01:58N 50°10' W 000°35'715.7
2017-Jun-21 01:30N 50°17' W 000°40'815.6
2017-Jun-21 01:00N 50°24' W 000°44'815.2
2017-Jun-21 00:30N 50°31' W 000°49'714.6
2017-Jun-21 00:01N 50°38' W 000°54'713.4
2017-Jun-20 23:31N 50°43' W 001°01'713.4
2017-Jun-20 23:01N 50°48' W 001°07'1 1.6
2017-Jun-20 22:30N 50°49' W 001°06'0 0.0
2017-Jun-20 22:01N 50°49' W 001°06'0 0.0
2017-Jun-20 21:31N 50°49' W 001°06'0 0.0
2017-Jun-20 21:01N 50°49' W 001°06'0 0.0
2017-Jun-20 20:30N 50°49' W 001°06'1 2.7
2017-Jun-20 20:00N 50°47' W 001°07'715.0
2017-Jun-20 19:31N 50°42' W 000°58'1020.1
2017-Jun-20 19:01N 50°33' W 000°51'1019.7
2017-Jun-20 18:31N 50°25' W 000°43'1019.5
2017-Jun-20 18:00N 50°16' W 000°36'918.9
2017-Jun-20 17:30N 50°08' W 000°29'919.0
2017-Jun-20 17:00N 49°59' W 000°23'1019.4
2017-Jun-20 16:30N 49°51' W 000°16'1019.4
2017-Jun-20 16:01N 49°42' W 000°09'1020.1
2017-Jun-20 15:31N 49°33' W 000°01'713.2
2017-Jun-20 15:00N 49°29' E 000°07'0 0.0
2017-Jun-20 14:30N 49°29' E 000°07'0 0.0
2017-Jun-20 13:30N 49°29' E 000°07'0 0.0
2017-Jun-20 13:00N 49°29' E 000°07'0 0.0
2017-Jun-20 12:30N 49°29' E 000°07'0 0.0
2017-Jun-20 12:00N 49°29' E 000°07'0 0.0
2017-Jun-20 11:30N 49°29' E 000°07'0 0.0
2017-Jun-20 11:00N 49°29' E 000°07'0 0.0
2017-Jun-20 10:30N 49°29' E 000°07'0 0.0
2017-Jun-20 10:00N 49°29' E 000°07'0 0.0
2017-Jun-20 09:30N 49°29' E 000°07'0 0.0
2017-Jun-20 09:00N 49°29' E 000°07'0 0.0
2017-Jun-20 08:30N 49°29' E 000°07'0 0.0
2017-Jun-20 08:00N 49°29' E 000°07'0 0.0
2017-Jun-20 07:30N 49°29' E 000°07'0 0.0
2017-Jun-20 07:00N 49°29' E 000°07'0 0.0
2017-Jun-20 06:30N 49°29' E 000°07'4 7.3
2017-Jun-20 06:00N 49°30' E 000°01'714.4
2017-Jun-20 05:30N 49°37' W 000°04'4 7.7
2017-Jun-20 05:00N 49°40' W 000°05'1 1.4
2017-Jun-20 04:30N 49°40' W 000°06'5 9.4
2017-Jun-20 04:00N 49°44' W 000°10'815.8
2017-Jun-20 03:31N 49°51' W 000°16'815.9
2017-Jun-20 03:01N 49°58' W 000°21'816.1
2017-Jun-20 02:30N 50°05' W 000°27'815.8
2017-Jun-20 02:01N 50°12' W 000°33'1515.7
2017-Jun-20 01:05N 50°25' W 000°44'115.8
2017-Jun-20 01:00N 50°26' W 000°45'815.6
2017-Jun-20 00:31N 50°33' W 000°50'714.6
2017-Jun-20 00:01N 50°39' W 000°56'714.0
2017-Jun-19 23:31N 50°44' W 001°04'5 9.4
2017-Jun-19 23:01N 50°49' W 001°06'0 0.0
2017-Jun-19 22:31N 50°49' W 001°06'0 0.0
2017-Jun-19 22:01N 50°49' W 001°06'0 0.0
2017-Jun-19 21:31N 50°49' W 001°06'0 0.0
2017-Jun-19 21:01N 50°49' W 001°06'0 0.5
2017-Jun-19 20:30N 50°49' W 001°06'4 8.1
2017-Jun-19 20:01N 50°45' W 001°05'919.0
2017-Jun-19 19:31N 50°38' W 000°55'918.8
2017-Jun-19 19:01N 50°29' W 000°48'1121.0
2017-Jun-19 18:28N 50°20' W 000°39'1021.2
2017-Jun-19 18:01N 50°11' W 000°32'1121.1
2017-Jun-19 17:31N 50°02' W 000°23'1121.1
2017-Jun-19 17:01N 49°53' W 000°16'1121.6
2017-Jun-19 16:31N 49°43' W 000°08'1121.5
2017-Jun-19 16:01N 49°33' W 000°01'713.2
2017-Jun-19 15:30N 49°29' E 000°07'0 0.0
2017-Jun-19 15:00N 49°29' E 000°07'0 0.0
2017-Jun-19 14:01N 49°29' E 000°07'0 0.0
2017-Jun-19 13:31N 49°29' E 000°07'0 0.0
2017-Jun-19 13:01N 49°29' E 000°07'0 0.0
2017-Jun-19 12:31N 49°29' E 000°07'0 0.0
2017-Jun-19 12:00N 49°29' E 000°07'0 0.0
2017-Jun-19 11:31N 49°29' E 000°07'0 0.0
2017-Jun-19 11:00N 49°29' E 000°07'0 0.0
2017-Jun-19 10:31N 49°29' E 000°07'0 0.0
2017-Jun-19 10:00N 49°29' E 000°07'0 0.0
2017-Jun-19 09:31N 49°29' E 000°07'0 0.0
2017-Jun-19 09:01N 49°29' E 000°07'0 0.0
2017-Jun-19 08:31N 49°29' E 000°07'0 0.0
2017-Jun-19 08:01N 49°29' E 000°07'0 0.0
2017-Jun-19 07:31N 49°29' E 000°07'  
Track history (hours):
 
Tides and Currents Weather Stations Pressure Air Temp Water Temp Dewpoint Dewpoint Depression Visibility Wind Speed Wind Dir Waves Ship Positions

Etretat

Last reported at 2017-Jun-29 07:30 UTC. Time now 2017-Jun-29 07:36 UTC.
Position N 49°29' E 000°07'.

Length 187 m; draft 6 m.

Type: Ship. MMSI: 228022900.

Date/timePositionNaut miles runAvg speedWind from/ knotsBaromVisibWave heightAir tempDewpointWater temp
2017-Jun-29 07:30N 49°29' E 000°07'0 0.0
2017-Jun-29 07:00N 49°29' E 000°07'0 0.0
2017-Jun-29 06:30N 49°29' E 000°07'3 6.0
2017-Jun-29 06:01N 49°30' E 000°02'816.7
2017-Jun-29 05:30N 49°37' W 000°04'3 5.3
2017-Jun-29 05:00N 49°37' W 000°08'4 8.7
2017-Jun-29 04:30N 49°40' W 000°02'2 3.1
2017-Jun-29 04:00N 49°41' W 000°04'714.5
2017-Jun-29 03:30N 49°46' W 000°12'814.9
2017-Jun-29 02:59N 49°53' W 000°17'4315.3
2017-Jun-29 00:10N 50°31' W 000°48'316.0
2017-Jun-29 00:00N 50°34' W 000°50'815.6
2017-Jun-28 23:30N 50°40' W 000°56'714.4
2017-Jun-28 23:00N 50°45' W 001°05'4 8.0
2017-Jun-28 22:30N 50°49' W 001°06'0 0.0
2017-Jun-28 22:00N 50°49' W 001°06'0 0.0
2017-Jun-28 21:30N 50°49' W 001°06'0 0.0
2017-Jun-28 21:00N 50°49' W 001°06'0 0.0
2017-Jun-28 20:30N 50°49' W 001°06'1 2.0
2017-Jun-28 20:00N 50°48' W 001°07'713.4
2017-Jun-28 19:30N 50°43' W 000°60'919.0
2017-Jun-28 19:01N 50°35' W 000°52'1121.3
2017-Jun-28 18:29N 50°25' W 000°43'2921.7
2017-Jun-28 17:09N 49°59' W 000°23'322.0
2017-Jun-28 17:00N 49°56' W 000°21'1122.0
2017-Jun-28 16:30N 49°47' W 000°13'1121.8
2017-Jun-28 16:00N 49°37' W 000°04'1019.2
2017-Jun-28 15:30N 49°29' E 000°04'2 3.3
2017-Jun-28 15:01N 49°29' E 000°07'0 0.0
2017-Jun-28 14:30N 49°29' E 000°07'0 0.0
2017-Jun-28 13:30N 49°29' E 000°07'0 0.0
2017-Jun-28 13:01N 49°29' E 000°07'0 0.0
2017-Jun-28 12:31N 49°29' E 000°07'0 0.0
2017-Jun-28 12:00N 49°29' E 000°07'0 0.0
2017-Jun-28 11:31N 49°29' E 000°07'0 0.0
2017-Jun-28 11:00N 49°29' E 000°07'0 0.0
2017-Jun-28 10:30N 49°29' E 000°07'0 0.0
2017-Jun-28 10:00N 49°29' E 000°07'0 0.0
2017-Jun-28 09:30N 49°29' E 000°07'0 0.0
2017-Jun-28 09:01N 49°29' E 000°07'0 0.0
2017-Jun-28 08:31N 49°29' E 000°07'0 0.0
2017-Jun-28 08:00N 49°29' E 000°07'0 0.0
2017-Jun-28 07:31N 49°29' E 000°07'0 0.0
2017-Jun-28 07:00N 49°29' E 000°07'0 0.0
2017-Jun-28 06:30N 49°29' E 000°07'3 5.7
2017-Jun-28 06:00N 49°30' E 000°02'816.5
2017-Jun-28 05:30N 49°37' W 000°03'3 6.4
2017-Jun-28 05:00N 49°40' W 000°05'0 0.3
2017-Jun-28 04:30N 49°40' W 000°05'612.8
2017-Jun-28 04:00N 49°45' W 000°12'3014.8
2017-Jun-28 02:01N 50°09' W 000°38'017.2
2017-Jun-28 01:59N 50°09' W 000°39'714.1
2017-Jun-28 01:30N 50°16' W 000°41'1714.5
2017-Jun-28 00:21N 50°32' W 000°49'515.0
2017-Jun-28 00:00N 50°37' W 000°52'714.2
2017-Jun-27 23:31N 50°42' W 000°59'612.8
2017-Jun-27 23:00N 50°47' W 001°06'2 3.7
2017-Jun-27 22:31N 50°49' W 001°06'0 0.0
2017-Jun-27 22:00N 50°49' W 001°06'0 0.0
2017-Jun-27 21:30N 50°49' W 001°06'0 0.0
2017-Jun-27 21:00N 50°49' W 001°06'0 0.0
2017-Jun-27 20:30N 50°49' W 001°06'1 2.3
2017-Jun-27 20:00N 50°48' W 001°07'714.1
2017-Jun-27 19:31N 50°43' W 000°59'918.0
2017-Jun-27 19:01N 50°35' W 000°53'1019.5
2017-Jun-27 18:31N 50°26' W 000°46'2520.7
2017-Jun-27 17:19N 50°04' W 000°27'721.2
2017-Jun-27 17:00N 49°58' W 000°22'1121.4
2017-Jun-27 16:31N 49°49' W 000°14'1121.0
2017-Jun-27 16:01N 49°40' W 000°07'1020.9
2017-Jun-27 15:31N 49°31' E 000°01'4 8.0
2017-Jun-27 15:01N 49°29' E 000°07'0 0.0
2017-Jun-27 14:00N 49°29' E 000°07'0 0.0
2017-Jun-27 13:31N 49°29' E 000°07'0 0.0
2017-Jun-27 13:01N 49°29' E 000°07'0 0.0
2017-Jun-27 12:31N 49°29' E 000°07'0 0.0
2017-Jun-27 12:01N 49°29' E 000°07'0 0.0
2017-Jun-27 11:31N 49°29' E 000°07'0 0.0
2017-Jun-27 11:01N 49°29' E 000°07'0 0.0
2017-Jun-27 10:31N 49°29' E 000°07'0 0.0
2017-Jun-27 10:00N 49°29' E 000°07'0 0.0
2017-Jun-27 09:31N 49°29' E 000°07'0 0.0
2017-Jun-27 09:01N 49°29' E 000°07'0 0.0
2017-Jun-27 08:30N 49°29' E 000°07'0 0.0
2017-Jun-27 08:01N 49°29' E 000°07'0 0.0
2017-Jun-27 07:30N 49°29' E 000°07'0 0.0
2017-Jun-27 07:01N 49°29' E 000°07'0 0.0
2017-Jun-27 06:31N 49°29' E 000°07'2 3.1
2017-Jun-27 06:01N 49°29' E 000°04'816.2
2017-Jun-27 05:31N 49°36' W 000°03'3 5.1
2017-Jun-27 05:00N 49°38' W 000°06'1 1.4
2017-Jun-27 04:30N 49°38' W 000°05'5 9.9
2017-Jun-27 04:00N 49°42' W 000°09'917.7
2017-Jun-27 03:30N 49°50' W 000°14'815.0
2017-Jun-27 03:00N 49°57' W 000°19'815.0
2017-Jun-27 02:30N 50°04' W 000°25'815.4
2017-Jun-27 02:01N 50°11' W 000°29'816.0
2017-Jun-27 01:30N 50°18' W 000°35'815.5
2017-Jun-27 01:01N 50°24' W 000°42'815.6
2017-Jun-27 00:30N 50°31' W 000°49'713.9
2017-Jun-27 00:00N 50°37' W 000°54'713.9
2017-Jun-26 23:31N 50°43' W 000°59'713.2
2017-Jun-26 23:00N 50°47' W 001°07'1 2.7
2017-Jun-26 22:30N 50°49' W 001°06'0 0.0
2017-Jun-26 22:01N 50°49' W 001°06'0 0.0
2017-Jun-26 21:30N 50°49' W 001°06'0 0.0
2017-Jun-26 21:00N 50°49' W 001°06'0 0.0
2017-Jun-26 20:31N 50°49' W 001°06'1 2.9
2017-Jun-26 20:00N 50°47' W 001°06'816.2
2017-Jun-26 19:30N 50°42' W 000°57'1019.3
2017-Jun-26 19:00N 50°34' W 000°49'1019.8
2017-Jun-26 18:30N 50°25' W 000°41'919.0
2017-Jun-26 18:01N 50°16' W 000°35'1019.2
2017-Jun-26 17:31N 50°07' W 000°30'1019.3
2017-Jun-26 17:00N 49°59' W 000°23'1019.5
2017-Jun-26 16:30N 49°50' W 000°15'1019.8
2017-Jun-26 16:01N 49°42' W 000°08'1019.5
2017-Jun-26 15:31N 49°33' W 000°01'612.6
2017-Jun-26 15:00N 49°29' E 000°07'0 0.0
2017-Jun-26 14:00N 49°29' E 000°07'0 0.0
2017-Jun-26 13:30N 49°29' E 000°07'0 0.0
2017-Jun-26 13:00N 49°29' E 000°07'0 0.0
2017-Jun-26 12:30N 49°29' E 000°07'0 0.0
2017-Jun-26 12:00N 49°29' E 000°07'0 0.0
2017-Jun-26 11:30N 49°29' E 000°07'0 0.0
2017-Jun-26 11:00N 49°29' E 000°07'0 0.0
2017-Jun-26 10:30N 49°29' E 000°07'0 0.0
2017-Jun-26 10:00N 49°29' E 000°07'0 0.0
2017-Jun-26 09:30N 49°29' E 000°07'0 0.0
2017-Jun-26 09:00N 49°29' E 000°07'0 0.0
2017-Jun-26 08:30N 49°29' E 000°07'0 0.0
2017-Jun-26 08:00N 49°29' E 000°07'0 0.0
2017-Jun-26 07:30N 49°29' E 000°07'0 0.0
2017-Jun-26 07:00N 49°29' E 000°07'1 1.1
2017-Jun-26 06:30N 49°29' E 000°06'714.9
2017-Jun-26 06:00N 49°34' W 000°03'4 7.6
2017-Jun-26 05:30N 49°37' W 000°07'1 1.2
2017-Jun-26 05:00N 49°37' W 000°06'1 1.3
2017-Jun-26 04:30N 49°38' W 000°06'2 4.7
2017-Jun-26 04:00N 49°40' W 000°07'918.0
2017-Jun-26 03:30N 49°48' W 000°13'816.2
2017-Jun-26 03:00N 49°55' W 000°19'713.2
2017-Jun-26 02:30N 50°01' W 000°23'713.2
2017-Jun-26 02:00N 50°07' W 000°28'713.4
2017-Jun-26 01:30N 50°13' W 000°32'713.7
2017-Jun-26 01:00N 50°19' W 000°38'714.1
2017-Jun-26 00:30N 50°25' W 000°43'714.4
2017-Jun-26 00:00N 50°32' W 000°49'714.3
2017-Jun-25 23:30N 50°38' W 000°54'713.4
2017-Jun-25 23:00N 50°43' W 001°01'612.7
2017-Jun-25 22:30N 50°48' W 001°07'1 1.9
2017-Jun-25 22:00N 50°49' W 001°06'0 0.0
2017-Jun-25 21:30N 50°49' W 001°06'0 0.0
2017-Jun-25 21:00N 50°49' W 001°06'0 0.0
2017-Jun-25 20:30N 50°49' W 001°06'2 4.2
2017-Jun-25 20:00N 50°47' W 001°06'714.0
2017-Jun-25 19:30N 50°42' W 000°58'918.9
2017-Jun-25 19:00N 50°33' W 000°52'1119.4
2017-Jun-25 18:27N 50°23' W 000°46'819.2
2017-Jun-25 18:00N 50°16' W 000°38'1019.0
2017-Jun-25 17:30N 50°08' W 000°29'918.9
2017-Jun-25 17:00N 49°60' W 000°23'918.7
2017-Jun-25 16:30N 49°51' W 000°17'1019.0
2017-Jun-25 16:00N 49°43' W 000°10'1020.1
2017-Jun-25 15:30N 49°34' W 000°02'815.8
2017-Jun-25 15:01N 49°29' E 000°07'0 0.0
2017-Jun-25 14:30N 49°29' E 000°07'0 0.0
2017-Jun-25 13:31N 49°29' E 000°07'0 0.0
2017-Jun-25 13:01N 49°29' E 000°07'0 0.0
2017-Jun-25 12:31N 49°29' E 000°07'0 0.0
2017-Jun-25 12:01N 49°29' E 000°07'0 0.0
2017-Jun-25 11:30N 49°29' E 000°07'0 0.0
2017-Jun-25 11:01N 49°29' E 000°07'0 0.0
2017-Jun-25 10:30N 49°29' E 000°07'0 0.0
2017-Jun-25 10:00N 49°29' E 000°07'0 0.0
2017-Jun-25 09:31N 49°29' E 000°07'0 0.0
2017-Jun-25 09:01N 49°29' E 000°07'0 0.0
2017-Jun-25 08:30N 49°29' E 000°07'0 0.0
2017-Jun-25 08:00N 49°29' E 000°07'0 0.0
2017-Jun-25 07:30N 49°29' E 000°07'0 0.0
2017-Jun-25 07:01N 49°29' E 000°07'0 0.0
2017-Jun-25 06:30N 49°29' E 000°07'3 5.4
2017-Jun-25 06:00N 49°30' E 000°03'714.7
2017-Jun-25 05:31N 49°36' W 000°03'714.1
2017-Jun-25 05:00N 49°42' W 000°09'713.8
2017-Jun-25 04:31N 49°48' W 000°14'713.8
2017-Jun-25 04:00N 49°53' W 000°21'612.3
2017-Jun-25 03:30N 49°58' W 000°26'611.4
2017-Jun-25 03:00N 50°03' W 000°31'510.2
2017-Jun-25 02:30N 50°08' W 000°35'610.1
2017-Jun-25 01:55N 50°12' W 000°40'5 9.3
2017-Jun-25 01:22N 50°17' W 000°43'1114.0
2017-Jun-25 00:35N 50°28' W 000°49'114.4
2017-Jun-25 00:30N 50°29' W 000°50'715.0
2017-Jun-25 00:00N 50°36' W 000°54'714.5
2017-Jun-24 23:31N 50°42' W 000°58'612.9
2017-Jun-24 23:00N 50°47' W 001°06'2 4.1
2017-Jun-24 22:30N 50°49' W 001°06'0 0.0
2017-Jun-24 22:00N 50°49' W 001°06'0 0.0
2017-Jun-24 21:30N 50°49' W 001°06'0 0.0
2017-Jun-24 21:00N 50°49' W 001°06'0 0.0
2017-Jun-24 20:31N 50°49' W 001°06'2 3.7
2017-Jun-24 20:00N 50°47' W 001°06'815.6
2017-Jun-24 19:30N 50°41' W 000°57'1019.1
2017-Jun-24 19:00N 50°33' W 000°49'2419.0
2017-Jun-24 17:46N 50°12' W 000°32'519.3
2017-Jun-24 17:30N 50°08' W 000°29'1019.3
2017-Jun-24 17:00N 49°59' W 000°23'1019.6
2017-Jun-24 16:30N 49°50' W 000°16'1020.4
2017-Jun-24 16:00N 49°41' W 000°09'1020.0
2017-Jun-24 15:30N 49°33' W 000°01'612.0
2017-Jun-24 15:00N 49°29' E 000°07'0 0.0
2017-Jun-24 14:01N 49°29' E 000°07'0 0.0
2017-Jun-24 13:31N 49°29' E 000°07'0 0.0
2017-Jun-24 13:00N 49°29' E 000°07'0 0.0
2017-Jun-24 12:30N 49°29' E 000°07'0 0.0
2017-Jun-24 12:00N 49°29' E 000°07'0 0.0
2017-Jun-24 11:30N 49°29' E 000°07'0 0.0
2017-Jun-24 11:00N 49°29' E 000°07'0 0.0
2017-Jun-24 10:31N 49°29' E 000°07'0 0.0
2017-Jun-24 10:00N 49°29' E 000°07'0 0.0
2017-Jun-24 09:31N 49°29' E 000°07'0 0.0
2017-Jun-24 09:00N 49°29' E 000°07'0 0.0
2017-Jun-24 08:30N 49°29' E 000°07'0 0.0
2017-Jun-24 08:00N 49°29' E 000°07'0 0.0
2017-Jun-24 07:30N 49°29' E 000°07'0 0.0
2017-Jun-24 07:00N 49°29' E 000°07'0 0.0
2017-Jun-24 06:31N 49°29' E 000°07'2 4.2
2017-Jun-24 06:00N 49°29' E 000°04'714.9
2017-Jun-24 05:30N 49°36' W 000°03'611.4
2017-Jun-24 05:01N 49°41' W 000°07'612.0
2017-Jun-24 04:31N 49°46' W 000°12'611.8
2017-Jun-24 04:01N 49°51' W 000°16'611.2
2017-Jun-24 03:30N 49°56' W 000°20'611.1
2017-Jun-24 03:00N 50°01' W 000°25'510.8
2017-Jun-24 02:31N 50°06' W 000°29'2912.7
2017-Jun-24 00:12N 50°32' W 000°49'313.0
2017-Jun-23 23:59N 50°34' W 000°51'612.7
2017-Jun-23 23:31N 50°39' W 000°56'713.0
2017-Jun-23 23:00N 50°44' W 001°03'510.4
2017-Jun-23 22:31N 50°49' W 001°06'0 0.5
2017-Jun-23 22:00N 50°49' W 001°06'0 0.0
2017-Jun-23 21:30N 50°49' W 001°06'0 0.0
2017-Jun-23 21:01N 50°49' W 001°06'0 0.0
2017-Jun-23 20:30N 50°49' W 001°06'0 0.0
2017-Jun-23 20:00N 50°49' W 001°06'0 0.0
2017-Jun-23 19:30N 50°49' W 001°06'0 0.0
2017-Jun-23 19:00N 50°49' W 001°06'0 0.0
2017-Jun-23 18:30N 50°49' W 001°06'0 0.0
2017-Jun-23 18:00N 50°49' W 001°06'0 0.0
2017-Jun-23 17:30N 50°49' W 001°06'0 0.0
2017-Jun-23 17:00N 50°49' W 001°06'0 0.0
2017-Jun-23 16:30N 50°49' W 001°06'0 0.0
2017-Jun-23 16:00N 50°49' W 001°06'0 0.0
2017-Jun-23 15:30N 50°49' W 001°06'0 0.0
2017-Jun-23 15:00N 50°49' W 001°06'0 0.0
2017-Jun-23 14:30N 50°49' W 001°06'0 0.0
2017-Jun-23 13:30N 50°49' W 001°06'0 0.0
2017-Jun-23 13:00N 50°49' W 001°06'0 0.0
2017-Jun-23 12:30N 50°49' W 001°06'0 0.0
2017-Jun-23 12:00N 50°49' W 001°06'0 0.0
2017-Jun-23 11:30N 50°49' W 001°06'0 0.0
2017-Jun-23 11:00N 50°49' W 001°06'0 0.0
2017-Jun-23 10:30N 50°49' W 001°06'0 0.0
2017-Jun-23 10:00N 50°49' W 001°06'0 0.0
2017-Jun-23 09:30N 50°49' W 001°06'0 0.0
2017-Jun-23 09:00N 50°49' W 001°06'0 0.0
2017-Jun-23 08:30N 50°49' W 001°06'0 0.0
2017-Jun-23 08:00N 50°49' W 001°06'0 0.0
2017-Jun-23 07:30N 50°49' W 001°06'0 0.0
2017-Jun-23 07:00N 50°49' W 001°06'2 3.6
2017-Jun-23 06:30N 50°47' W 001°06'815.8
2017-Jun-23 06:01N 50°41' W 000°57'612.7
2017-Jun-23 05:31N 50°36' W 000°53'5 9.7
2017-Jun-23 05:01N 50°31' W 000°49'5 9.5
2017-Jun-23 04:30N 50°27' W 000°46'510.0
2017-Jun-23 04:00N 50°23' W 000°42'6 9.7
2017-Jun-23 03:21N 50°17' W 000°37'3 9.7
2017-Jun-23 03:00N 50°14' W 000°34'612.1
2017-Jun-23 02:29N 50°09' W 000°29'511.3
2017-Jun-23 02:00N 50°04' W 000°25'611.4
2017-Jun-23 01:30N 49°59' W 000°21'611.7
2017-Jun-23 01:00N 49°54' W 000°17'611.5
2017-Jun-23 00:30N 49°49' W 000°13'611.7
2017-Jun-23 00:00N 49°44' W 000°08'4 8.4
2017-Jun-22 23:31N 49°41' W 000°04'1 2.8
2017-Jun-22 23:01N 49°39' W 000°04'1 1.3
2017-Jun-22 22:30N 49°40' W 000°04'1 1.3
2017-Jun-22 22:00N 49°40' W 000°05'1 1.5
2017-Jun-22 21:31N 49°40' W 000°06'2 3.8
2017-Jun-22 21:00N 49°39' W 000°04'815.4
2017-Jun-22 20:30N 49°32' E 000°01'5 9.5
2017-Jun-22 20:01N 49°29' E 000°07'0 0.0
2017-Jun-22 19:31N 49°29' E 000°07'0 0.0
2017-Jun-22 19:01N 49°29' E 000°07'0 0.0
2017-Jun-22 18:31N 49°29' E 000°07'0 0.0
2017-Jun-22 18:00N 49°29' E 000°07'0 0.0
2017-Jun-22 17:30N 49°29' E 000°07'0 0.0
2017-Jun-22 17:01N 49°29' E 000°07'0 0.0
2017-Jun-22 16:31N 49°29' E 000°07'0 0.0
2017-Jun-22 16:01N 49°29' E 000°07'0 0.0
2017-Jun-22 15:31N 49°29' E 000°07'0 0.0
2017-Jun-22 15:01N 49°29' E 000°07'0 0.0
2017-Jun-22 14:00N 49°29' E 000°07'0 0.0
2017-Jun-22 13:31N 49°29' E 000°07'0 0.0
2017-Jun-22 13:01N 49°29' E 000°07'0 0.0
2017-Jun-22 12:31N 49°29' E 000°07'0 0.0
2017-Jun-22 12:01N 49°29' E 000°07'0 0.0
2017-Jun-22 11:31N 49°29' E 000°07'0 0.0
2017-Jun-22 11:00N 49°29' E 000°07'0 0.0
2017-Jun-22 10:30N 49°29' E 000°07'0 0.0
2017-Jun-22 10:01N 49°29' E 000°07'0 0.0
2017-Jun-22 09:31N 49°29' E 000°07'0 0.0
2017-Jun-22 09:00N 49°29' E 000°07'0 0.0
2017-Jun-22 08:31N 49°29' E 000°07'0 0.0
2017-Jun-22 08:01N 49°29' E 000°07'0 0.0
2017-Jun-22 07:31N 49°29' E 000°07'0 0.0
2017-Jun-22 07:01N 49°29' E 000°07'0 0.3
2017-Jun-22 06:31N 49°29' E 000°07'2 4.8
2017-Jun-22 06:00N 49°30' E 000°03'612.6
2017-Jun-22 05:31N 49°35' W 000°03'5 9.9
2017-Jun-22 05:01N 49°39' W 000°06'5 9.5
2017-Jun-22 04:31N 49°43' W 000°09'5 9.3
2017-Jun-22 04:00N 49°47' W 000°13'5 9.8
2017-Jun-22 03:30N 49°52' W 000°16'510.0
2017-Jun-22 03:00N 49°56' W 000°20'612.3
2017-Jun-22 02:30N 50°02' W 000°24'815.0
2017-Jun-22 02:00N 50°09' W 000°28'714.6
2017-Jun-22 01:31N 50°15' W 000°33'714.1
2017-Jun-22 01:01N 50°21' W 000°39'714.7
2017-Jun-22 00:31N 50°27' W 000°46'714.9
2017-Jun-22 00:01N 50°34' W 000°51'714.7
2017-Jun-21 23:31N 50°40' W 000°57'713.8
2017-Jun-21 23:01N 50°45' W 001°05'4 8.0
2017-Jun-21 22:30N 50°49' W 001°06'0 0.0
2017-Jun-21 22:01N 50°49' W 001°06'0 0.0
2017-Jun-21 21:30N 50°49' W 001°06'0 0.0
2017-Jun-21 21:01N 50°49' W 001°06'0 0.0
2017-Jun-21 20:30N 50°49' W 001°06'1 2.5
2017-Jun-21 20:01N 50°48' W 001°07'816.8
2017-Jun-21 19:31N 50°41' W 000°59'1020.9
2017-Jun-21 19:00N 50°32' W 000°50'1120.4
2017-Jun-21 18:28N 50°24' W 000°39'920.5
2017-Jun-21 18:00N 50°16' W 000°31'1020.5
2017-Jun-21 17:30N 50°06' W 000°25'1020.7
2017-Jun-21 17:00N 49°57' W 000°18'1020.6
2017-Jun-21 16:30N 49°47' W 000°12'1020.8
2017-Jun-21 16:00N 49°38' W 000°04'1019.3
2017-Jun-21 15:31N 49°30' E 000°03'3 5.1
2017-Jun-21 15:01N 49°29' E 000°07'0 0.0
2017-Jun-21 14:30N 49°29' E 000°07'0 0.0
2017-Jun-21 13:31N 49°29' E 000°07'0 0.0
2017-Jun-21 13:00N 49°29' E 000°07'0 0.0
2017-Jun-21 12:30N 49°29' E 000°07'0 0.0
2017-Jun-21 12:00N 49°29' E 000°07'0 0.0
2017-Jun-21 11:30N 49°29' E 000°07'0 0.0
2017-Jun-21 11:00N 49°29' E 000°07'0 0.0
2017-Jun-21 10:30N 49°29' E 000°07'0 0.0
2017-Jun-21 10:01N 49°29' E 000°07'0 0.0
2017-Jun-21 09:31N 49°29' E 000°07'0 0.0
2017-Jun-21 09:00N 49°29' E 000°07'0 0.0
2017-Jun-21 08:30N 49°29' E 000°07'0 0.0
2017-Jun-21 08:00N 49°29' E 000°07'0 0.0
2017-Jun-21 07:31N 49°29' E 000°07'0 0.0
2017-Jun-21 07:00N 49°29' E 000°07'0 0.0
2017-Jun-21 06:30N 49°29' E 000°07'3 6.6
2017-Jun-21 06:01N 49°30' E 000°02'714.4
2017-Jun-21 05:31N 49°36' W 000°03'2 4.1
2017-Jun-21 05:00N 49°38' W 000°05'1 1.2
2017-Jun-21 04:30N 49°38' W 000°06'3 6.4
2017-Jun-21 04:00N 49°41' W 000°09'918.0
2017-Jun-21 03:30N 49°48' W 000°17'917.3
2017-Jun-21 03:00N 49°55' W 000°24'815.9
2017-Jun-21 02:30N 50°02' W 000°30'916.0
2017-Jun-21 01:58N 50°10' W 000°35'715.7
2017-Jun-21 01:30N 50°17' W 000°40'815.6
2017-Jun-21 01:00N 50°24' W 000°44'815.2
2017-Jun-21 00:30N 50°31' W 000°49'714.6
2017-Jun-21 00:01N 50°38' W 000°54'713.4
2017-Jun-20 23:31N 50°43' W 001°01'713.4
2017-Jun-20 23:01N 50°48' W 001°07'1 1.6
2017-Jun-20 22:30N 50°49' W 001°06'0 0.0
2017-Jun-20 22:01N 50°49' W 001°06'0 0.0
2017-Jun-20 21:31N 50°49' W 001°06'0 0.0
2017-Jun-20 21:01N 50°49' W 001°06'0 0.0
2017-Jun-20 20:30N 50°49' W 001°06'1 2.7
2017-Jun-20 20:00N 50°47' W 001°07'715.0
2017-Jun-20 19:31N 50°42' W 000°58'1020.1
2017-Jun-20 19:01N 50°33' W 000°51'1019.7
2017-Jun-20 18:31N 50°25' W 000°43'1019.5
2017-Jun-20 18:00N 50°16' W 000°36'918.9
2017-Jun-20 17:30N 50°08' W 000°29'919.0
2017-Jun-20 17:00N 49°59' W 000°23'1019.4
2017-Jun-20 16:30N 49°51' W 000°16'1019.4
2017-Jun-20 16:01N 49°42' W 000°09'1020.1
2017-Jun-20 15:31N 49°33' W 000°01'713.2
2017-Jun-20 15:00N 49°29' E 000°07'0 0.0
2017-Jun-20 14:30N 49°29' E 000°07'0 0.0
2017-Jun-20 13:30N 49°29' E 000°07'0 0.0
2017-Jun-20 13:00N 49°29' E 000°07'0 0.0
2017-Jun-20 12:30N 49°29' E 000°07'0 0.0
2017-Jun-20 12:00N 49°29' E 000°07'0 0.0
2017-Jun-20 11:30N 49°29' E 000°07'0 0.0
2017-Jun-20 11:00N 49°29' E 000°07'0 0.0
2017-Jun-20 10:30N 49°29' E 000°07'0 0.0
2017-Jun-20 10:00N 49°29' E 000°07'0 0.0
2017-Jun-20 09:30N 49°29' E 000°07'0 0.0
2017-Jun-20 09:00N 49°29' E 000°07'0 0.0
2017-Jun-20 08:30N 49°29' E 000°07'0 0.0
2017-Jun-20 08:00N 49°29' E 000°07'0 0.0
2017-Jun-20 07:30N 49°29' E 000°07'0 0.0
2017-Jun-20 07:00N 49°29' E 000°07'0 0.0
2017-Jun-20 06:30N 49°29' E 000°07'4 7.3
2017-Jun-20 06:00N 49°30' E 000°01'714.4
2017-Jun-20 05:30N 49°37' W 000°04'4 7.7
2017-Jun-20 05:00N 49°40' W 000°05'1 1.4
2017-Jun-20 04:30N 49°40' W 000°06'5 9.4
2017-Jun-20 04:00N 49°44' W 000°10'815.8
2017-Jun-20 03:31N 49°51' W 000°16'815.9
2017-Jun-20 03:01N 49°58' W 000°21'816.1
2017-Jun-20 02:30N 50°05' W 000°27'815.8
2017-Jun-20 02:01N 50°12' W 000°33'1515.7
2017-Jun-20 01:05N 50°25' W 000°44'115.8
2017-Jun-20 01:00N 50°26' W 000°45'815.6
2017-Jun-20 00:31N 50°33' W 000°50'714.6
2017-Jun-20 00:01N 50°39' W 000°56'714.0
2017-Jun-19 23:31N 50°44' W 001°04'5 9.4
2017-Jun-19 23:01N 50°49' W 001°06'0 0.0
2017-Jun-19 22:31N 50°49' W 001°06'0 0.0
2017-Jun-19 22:01N 50°49' W 001°06'0 0.0
2017-Jun-19 21:31N 50°49' W 001°06'0 0.0
2017-Jun-19 21:01N 50°49' W 001°06'0 0.5
2017-Jun-19 20:30N 50°49' W 001°06'4 8.1
2017-Jun-19 20:01N 50°45' W 001°05'919.0
2017-Jun-19 19:31N 50°38' W 000°55'918.8
2017-Jun-19 19:01N 50°29' W 000°48'1121.0
2017-Jun-19 18:28N 50°20' W 000°39'1021.2
2017-Jun-19 18:01N 50°11' W 000°32'1121.1
2017-Jun-19 17:31N 50°02' W 000°23'1121.1
2017-Jun-19 17:01N 49°53' W 000°16'1121.6
2017-Jun-19 16:31N 49°43' W 000°08'1121.5
2017-Jun-19 16:01N 49°33' W 000°01'713.2
2017-Jun-19 15:30N 49°29' E 000°07'0 0.0
2017-Jun-19 15:00N 49°29' E 000°07'0 0.0
2017-Jun-19 14:01N 49°29' E 000°07'0 0.0
2017-Jun-19 13:31N 49°29' E 000°07'0 0.0
2017-Jun-19 13:01N 49°29' E 000°07'0 0.0
2017-Jun-19 12:31N 49°29' E 000°07'0 0.0
2017-Jun-19 12:00N 49°29' E 000°07'0 0.0
2017-Jun-19 11:31N 49°29' E 000°07'0 0.0
2017-Jun-19 11:00N 49°29' E 000°07'0 0.0
2017-Jun-19 10:31N 49°29' E 000°07'0 0.0
2017-Jun-19 10:00N 49°29' E 000°07'0 0.0
2017-Jun-19 09:31N 49°29' E 000°07'0 0.0
2017-Jun-19 09:01N 49°29' E 000°07'0 0.0
2017-Jun-19 08:31N 49°29' E 000°07'0 0.0
2017-Jun-19 08:01N 49°29' E 000°07'0 0.0
2017-Jun-19 07:31N 49°29' E 000°07'  

Dump ship's entire track history